Time;durP1;ratioP1;P1;durP2;ratioP2;P2;SDS_P1;SDS_P2;PMS_P1;PMS_P2;Temp;Humidity;BMP_temperature;BMP_pressure;BME280_temperature;BME280_humidity;BME280_pressure;Samples;Min_cycle;Max_cycle;Signal;HPM_P1;HPM_P2
2021/12/15 00:00:34;;;;;;;30.83;12.75;;;9.90;99.90;;;;;;5044605;28;20033;-68
2021/12/15 00:03:00;;;;;;;34.25;13.27;;;9.90;99.90;;;;;;5042664;28;20166;-68
2021/12/15 00:05:27;;;;;;;40.30;15.83;;;9.90;99.90;;;;;;5047754;28;20119;-68
2021/12/15 00:07:57;;;;;;;43.20;13.32;;;9.80;99.90;;;;;;5020477;28;20310;-67
2021/12/15 00:10:25;;;;;;;37.05;12.50;;;9.90;99.90;;;;;;5039048;28;20409;-68
2021/12/15 00:12:50;;;;;;;33.13;13.82;;;9.90;99.90;;;;;;5040415;28;20051;-68
2021/12/15 00:15:18;;;;;;;39.72;13.43;;;9.80;99.90;;;;;;5044459;28;20041;-67
2021/12/15 00:17:44;;;;;;;36.03;13.68;;;9.80;99.90;;;;;;5032128;28;20043;-68
2021/12/15 00:20:14;;;;;;;35.30;14.07;;;9.80;99.90;;;;;;5011100;28;20033;-68
2021/12/15 00:22:40;;;;;;;38.72;12.20;;;9.80;99.90;;;;;;5046691;28;20499;-68
2021/12/15 00:25:08;;;;;;;37.80;14.88;;;9.80;99.90;;;;;;5028584;28;20041;-68
2021/12/15 00:27:34;;;;;;;33.72;14.35;;;9.80;99.90;;;;;;5038970;28;20045;-68
2021/12/15 00:30:00;;;;;;;28.20;12.67;;;9.80;99.90;;;;;;5044636;28;20040;-68
2021/12/15 00:32:26;;;;;;;39.10;15.15;;;9.80;99.90;;;;;;5044823;28;20059;-68
2021/12/15 00:34:52;;;;;;;38.45;14.40;;;9.80;99.90;;;;;;5025852;28;20082;-68
2021/12/15 00:37:19;;;;;;;30.53;13.80;;;9.80;99.90;;;;;;5044010;28;20037;-68
2021/12/15 00:39:45;;;;;;;38.60;14.73;;;9.80;99.90;;;;;;5039106;28;20068;-68
2021/12/15 00:42:11;;;;;;;35.10;13.80;;;9.80;99.90;;;;;;5023993;28;20037;-68
2021/12/15 00:44:38;;;;;;;34.30;13.27;;;9.80;99.90;;;;;;5047440;28;20366;-68
2021/12/15 00:47:04;;;;;;;37.83;12.68;;;9.80;99.90;;;;;;5046813;28;20052;-68
2021/12/15 00:49:30;;;;;;;40.67;13.90;;;9.80;99.90;;;;;;5022817;28;20132;-68
2021/12/15 00:51:56;;;;;;;38.72;13.48;;;9.80;99.90;;;;;;5039487;28;20041;-68
2021/12/15 00:54:22;;;;;;;29.70;13.77;;;9.80;99.90;;;;;;5023868;28;20044;-68
2021/12/15 00:56:49;;;;;;;;;;;9.80;99.90;;;;;;5045293;28;20041;-68
2021/12/15 00:59:15;;;;;;;36.42;13.43;;;9.80;99.90;;;;;;5030296;28;19936;-68
2021/12/15 01:01:41;;;;;;;37.85;13.98;;;9.80;99.90;;;;;;5039815;28;20674;-68
2021/12/15 01:04:09;;;;;;;37.60;14.57;;;9.80;99.90;;;;;;5043752;28;20240;-68
2021/12/15 01:06:35;;;;;;;43.08;14.68;;;9.80;99.90;;;;;;5039377;28;20440;-67
2021/12/15 01:09:06;;;;;;;33.88;16.33;;;9.80;99.90;;;;;;5038817;28;20185;-68
2021/12/15 01:12:07;;;;;;;49.25;17.05;;;9.80;99.90;;;;;;5043057;28;20043;-68
2021/12/15 01:19:47;;;;;;;38.78;14.35;;;9.80;99.90;;;;;;5040937;28;20044;-68
2021/12/15 01:20:45;;;;;;;35.15;14.88;;;9.80;99.90;;;;;;5042382;28;20072;-68
2021/12/15 01:23:14;;;;;;;46.30;16.25;;;9.80;99.90;;;;;;5039639;28;20159;-68
2021/12/15 01:25:44;;;;;;;41.72;16.25;;;9.80;99.90;;;;;;5044159;28;20508;-68
2021/12/15 01:28:10;;;;;;;38.03;14.73;;;9.90;99.90;;;;;;5026002;28;20037;-68
2021/12/15 01:30:41;;;;;;;32.85;14.35;;;9.80;99.90;;;;;;5043384;28;20039;-68
2021/12/15 01:33:07;;;;;;;39.22;15.38;;;9.90;99.90;;;;;;5043271;28;20037;-68
2021/12/15 01:35:35;;;;;;;39.42;16.52;;;9.90;99.90;;;;;;5029927;28;20049;-68
2021/12/15 01:38:00;;;;;;;40.45;16.58;;;9.80;99.90;;;;;;5045599;28;20047;-68
2021/12/15 01:40:34;;;;;;;45.17;16.27;;;9.80;99.90;;;;;;5035036;28;20756;-68
2021/12/15 01:43:04;;;;;;;43.85;16.17;;;9.90;99.90;;;;;;5040265;28;20043;-68
2021/12/15 01:48:15;;;;;;;47.38;16.15;;;9.90;99.90;;;;;;5044913;28;20048;-68
2021/12/15 01:50:42;;;;;;;38.85;17.13;;;9.90;99.90;;;;;;5042155;28;20409;-68
2021/12/15 01:53:09;;;;;;;39.60;16.40;;;9.90;99.90;;;;;;5045018;28;20147;-68
2021/12/15 01:55:36;;;;;;;48.28;15.70;;;9.90;99.90;;;;;;5047125;28;20378;-68
2021/12/15 01:58:02;;;;;;;42.97;17.33;;;9.90;99.90;;;;;;5023402;28;20124;-68
2021/12/15 02:00:42;;;;;;;47.42;16.83;;;9.90;99.90;;;;;;5041213;28;20068;-68
2021/12/15 02:03:07;;;;;;;37.80;15.60;;;9.90;99.90;;;;;;5021552;28;20170;-68
2021/12/15 02:05:35;;;;;;;41.00;16.83;;;9.90;99.90;;;;;;5005891;28;21124;-68
2021/12/15 02:08:04;;;;;;;42.45;15.70;;;9.90;99.90;;;;;;5043076;28;20037;-68
2021/12/15 02:10:34;;;;;;;50.42;17.60;;;9.90;99.90;;;;;;5041386;28;20044;-68
2021/12/15 02:13:02;;;;;;;35.50;17.10;;;9.90;99.90;;;;;;5042122;28;20048;-68
2021/12/15 02:15:38;;;;;;;39.08;16.30;;;9.90;99.90;;;;;;5043121;28;20087;-68
2021/12/15 02:18:06;;;;;;;46.15;16.65;;;9.90;99.90;;;;;;5044564;28;20059;-68
2021/12/15 02:20:39;;;;;;;42.33;17.15;;;9.90;99.90;;;;;;5025690;28;20048;-68
2021/12/15 02:23:08;;;;;;;39.60;16.55;;;9.90;99.90;;;;;;5037021;28;20032;-68
2021/12/15 02:25:33;;;;;;;54.53;17.75;;;9.90;99.90;;;;;;5027277;28;20122;-68
2021/12/15 02:28:01;;;;;;;49.53;16.87;;;9.90;99.90;;;;;;5028999;28;20040;-68
2021/12/15 02:38:17;;;;;;;48.03;18.95;;;9.90;99.90;;;;;;5037844;28;20032;-68
2021/12/15 02:40:45;;;;;;;51.95;18.65;;;10.00;99.90;;;;;;5041082;28;20104;-67
2021/12/15 02:43:10;;;;;;;42.10;17.70;;;9.90;99.90;;;;;;5054117;22;20124;-85
2021/12/15 02:45:36;;;;;;;39.63;17.13;;;9.90;99.90;;;;;;5043629;28;20550;-84
2021/12/15 02:48:02;;;;;;;46.23;18.90;;;9.90;99.90;;;;;;5026336;28;20089;-84
2021/12/15 02:50:30;;;;;;;52.97;19.50;;;9.90;99.90;;;;;;5022746;28;20048;-84
2021/12/15 02:52:58;;;;;;;49.22;18.55;;;9.90;99.90;;;;;;5044246;28;20048;-84
2021/12/15 02:55:24;;;;;;;56.85;19.48;;;9.90;99.90;;;;;;5038180;28;20544;-84
2021/12/15 02:57:51;;;;;;;49.75;17.17;;;9.90;99.90;;;;;;5034372;28;20041;-83
2021/12/15 03:00:27;;;;;;;42.25;18.65;;;9.90;99.90;;;;;;5032802;28;20033;-84
2021/12/15 03:05:53;;;;;;;43.22;17.35;;;10.00;99.90;;;;;;5041049;28;20103;-84
2021/12/15 03:08:29;;;;;;;40.53;17.77;;;10.00;99.90;;;;;;5027264;28;20049;-84
2021/12/15 03:16:07;;;;;;;46.53;19.30;;;10.00;99.90;;;;;;5046706;28;20045;-68
2021/12/15 03:18:33;;;;;;;48.10;18.35;;;10.00;99.90;;;;;;5067211;28;20039;-68
2021/12/15 03:21:09;;;;;;;42.72;18.40;;;10.00;99.90;;;;;;5046458;28;20036;-69
2021/12/15 03:23:51;;;;;;;42.03;18.17;;;10.00;99.90;;;;;;5065276;28;20064;-69
2021/12/15 03:26:26;;;;;;;35.35;16.85;;;10.00;99.90;;;;;;5053020;28;20062;-69
2021/12/15 03:34:46;;;;;;;39.60;18.42;;;10.00;99.90;;;;;;5042115;28;20036;-69
2021/12/15 03:37:22;;;;;;;43.27;16.97;;;10.00;99.90;;;;;;5062590;28;20040;-69
2021/12/15 03:39:53;;;;;;;58.40;20.50;;;10.00;99.90;;;;;;5044502;28;20044;-69
2021/12/15 03:42:25;;;;;;;36.17;17.15;;;10.00;99.90;;;;;;5056770;28;20043;-68
2021/12/15 03:44:52;;;;;;;41.28;17.45;;;10.00;99.90;;;;;;5067253;28;20037;-68
2021/12/15 03:47:28;;;;;;;49.45;17.30;;;10.00;99.90;;;;;;5050121;28;20037;-69
2021/12/15 03:49:56;;;;;;;38.30;16.38;;;10.00;99.90;;;;;;5027617;28;20415;-68
2021/12/15 03:52:23;;;;;;;33.97;16.23;;;10.00;99.90;;;;;;5044908;28;20044;-69
2021/12/15 03:54:48;;;;;;;;;;;10.00;99.90;;;;;;5049226;28;20072;-68
2021/12/15 03:57:15;;;;;;;36.80;16.42;;;10.00;99.90;;;;;;5061207;28;19960;-69
2021/12/15 03:59:43;;;;;;;42.58;15.52;;;10.00;99.90;;;;;;5046886;28;20442;-68
2021/12/15 04:02:15;;;;;;;38.25;16.10;;;10.00;99.90;;;;;;5063349;28;20143;-68
2021/12/15 04:04:41;;;;;;;39.42;17.00;;;10.00;99.90;;;;;;5053860;28;20044;-69
2021/12/15 04:07:08;;;;;;;43.60;16.10;;;10.00;99.90;;;;;;5037770;28;20053;-68
2021/12/15 04:09:37;;;;;;;35.55;16.13;;;10.00;99.90;;;;;;5040537;28;20259;-69
2021/12/15 04:12:03;;;;;;;43.15;16.80;;;10.00;99.90;;;;;;5039733;28;20044;-68
2021/12/15 04:14:34;;;;;;;;;;;10.00;99.90;;;;;;5058598;28;20048;-69
2021/12/15 04:17:06;;;;;;;39.63;17.35;;;10.00;99.90;;;;;;5056443;28;20315;-69
2021/12/15 04:19:35;;;;;;;41.58;17.10;;;10.00;99.90;;;;;;5030364;28;20044;-69
2021/12/15 04:22:01;;;;;;;40.28;16.23;;;10.00;99.90;;;;;;5045527;28;20135;-68
2021/12/15 04:24:28;;;;;;;39.28;16.58;;;10.00;99.90;;;;;;5040817;28;20059;-69
2021/12/15 04:26:57;;;;;;;41.33;17.90;;;10.00;99.90;;;;;;5059689;28;20497;-68
2021/12/15 04:29:23;;;;;;;44.17;16.65;;;9.90;99.90;;;;;;5064172;28;20171;-69
2021/12/15 04:32:05;;;;;;;42.13;17.13;;;10.00;99.90;;;;;;5030376;28;20485;-68
2021/12/15 04:34:31;;;;;;;37.78;16.98;;;10.00;99.90;;;;;;5041074;28;20489;-69
2021/12/15 04:36:56;;;;;;;40.53;17.63;;;9.90;99.90;;;;;;5044389;28;20044;-68
2021/12/15 04:39:25;;;;;;;37.07;17.00;;;9.90;99.90;;;;;;5044649;28;20090;-68
2021/12/15 04:41:52;;;;;;;41.92;17.95;;;9.90;99.90;;;;;;5061406;28;20052;-69
2021/12/15 04:44:21;;;;;;;42.33;18.38;;;9.90;99.90;;;;;;5047898;28;20044;-68
2021/12/15 04:46:57;;;;;;;47.13;17.92;;;9.90;99.90;;;;;;5065903;28;20071;-69
2021/12/15 04:49:34;;;;;;;44.08;18.20;;;9.90;99.90;;;;;;5052840;28;20033;-69
2021/12/15 04:52:01;;;;;;;38.50;16.08;;;10.00;99.90;;;;;;5062239;28;20037;-68
2021/12/15 04:54:28;;;;;;;41.50;17.35;;;9.90;99.90;;;;;;5061191;28;20119;-69
2021/12/15 04:56:54;;;;;;;41.08;16.63;;;9.90;99.90;;;;;;5065807;28;20037;-69
2021/12/15 04:59:20;;;;;;;40.55;17.08;;;9.90;99.90;;;;;;5065418;28;20529;-69
2021/12/15 05:01:47;;;;;;;41.75;16.00;;;9.90;99.90;;;;;;5044827;28;20124;-69
2021/12/15 05:04:13;;;;;;;;;;;9.90;99.90;;;;;;5065649;28;20032;-69
2021/12/15 05:06:39;;;;;;;41.80;14.60;;;9.90;99.90;;;;;;5045548;28;20246;-69
2021/12/15 05:09:06;;;;;;;41.47;16.25;;;9.90;99.90;;;;;;5043828;28;20054;-69
2021/12/15 05:11:32;;;;;;;35.13;16.38;;;9.90;99.90;;;;;;5031556;28;20370;-69
2021/12/15 05:13:58;;;;;;;41.00;16.58;;;10.00;99.90;;;;;;5063919;28;20036;-69
2021/12/15 05:16:24;;;;;;;49.93;17.43;;;9.90;99.90;;;;;;5058785;28;20044;-69
2021/12/15 05:18:50;;;;;;;46.05;17.05;;;10.00;99.90;;;;;;5061318;28;20090;-69
2021/12/15 05:21:17;;;;;;;47.08;17.60;;;10.00;99.90;;;;;;5061028;28;20481;-69
2021/12/15 05:23:47;;;;;;;35.80;16.30;;;9.90;99.90;;;;;;5049741;28;20123;-68
2021/12/15 05:26:12;;;;;;;40.53;16.23;;;9.90;99.90;;;;;;5060608;28;20459;-69
2021/12/15 05:28:38;;;;;;;43.43;16.97;;;10.00;99.90;;;;;;5042974;28;20087;-69
2021/12/15 05:31:04;;;;;;;42.83;17.58;;;10.00;99.90;;;;;;5038407;28;20039;-68
2021/12/15 05:33:30;;;;;;;36.00;16.03;;;10.00;99.90;;;;;;5060830;28;20478;-69
2021/12/15 05:35:56;;;;;;;44.20;17.27;;;9.90;99.90;;;;;;5062489;28;20048;-68
2021/12/15 05:38:23;;;;;;;42.05;16.60;;;9.90;99.90;;;;;;5042047;28;20056;-69
2021/12/15 05:40:49;;;;;;;33.20;15.07;;;9.90;99.90;;;;;;5040178;28;20044;-68
2021/12/15 05:43:16;;;;;;;45.38;17.58;;;9.90;99.90;;;;;;5037322;28;20534;-69
2021/12/15 05:45:42;;;;;;;44.08;16.40;;;9.90;99.90;;;;;;5065648;28;20033;-69
2021/12/15 05:48:12;;;;;;;37.75;16.25;;;9.90;99.90;;;;;;5045329;28;20110;-69
2021/12/15 05:50:39;;;;;;;41.60;16.98;;;9.80;99.90;;;;;;5044287;28;20055;-69
2021/12/15 05:53:07;;;;;;;42.13;17.65;;;9.90;99.90;;;;;;5063164;28;20460;-68
2021/12/15 05:55:34;;;;;;;43.95;17.35;;;9.90;99.90;;;;;;5063533;28;20040;-68
2021/12/15 05:58:00;;;;;;;36.55;16.40;;;9.80;99.90;;;;;;5046190;28;20040;-68
2021/12/15 06:00:30;;;;;;;41.23;15.90;;;9.80;99.90;;;;;;5061987;28;20058;-69
2021/12/15 06:02:57;;;;;;;37.65;16.10;;;9.90;99.90;;;;;;5046594;28;20037;-68
2021/12/15 06:05:23;;;;;;;40.67;16.70;;;9.80;99.90;;;;;;5044263;28;20040;-69
2021/12/15 06:07:49;;;;;;;;;;;9.90;99.90;;;;;;5046229;28;20048;-68
2021/12/15 06:10:19;;;;;;;39.92;15.82;;;9.90;99.90;;;;;;5045472;28;20331;-68
2021/12/15 06:12:48;;;;;;;38.42;16.02;;;9.80;99.90;;;;;;5061262;28;20410;-68
2021/12/15 06:15:20;;;;;;;40.75;15.85;;;9.80;99.90;;;;;;5025510;28;20214;-69
2021/12/15 06:17:57;;;;;;;40.08;15.82;;;9.90;99.90;;;;;;5042814;28;20120;-69
2021/12/15 06:20:26;;;;;;;48.85;17.48;;;9.80;99.90;;;;;;5044048;28;20032;-69
2021/12/15 06:22:55;;;;;;;;;;;9.90;99.90;;;;;;5058353;28;20045;-68
2021/12/15 06:25:22;;;;;;;38.25;15.25;;;9.80;99.90;;;;;;5042744;28;19916;-68
2021/12/15 06:27:48;;;;;;;36.72;16.02;;;9.90;99.90;;;;;;5062325;28;20055;-69
2021/12/15 06:30:14;;;;;;;40.60;15.27;;;9.90;99.90;;;;;;5063433;28;20408;-69
2021/12/15 06:32:40;;;;;;;43.60;15.70;;;9.90;99.90;;;;;;5060645;28;20484;-69
2021/12/15 06:35:07;;;;;;;37.07;16.13;;;9.80;99.90;;;;;;5046424;28;20147;-69
2021/12/15 06:37:32;;;;;;;42.47;16.63;;;9.80;99.90;;;;;;5055711;28;20035;-68
2021/12/15 06:39:59;;;;;;;37.42;14.82;;;9.80;99.90;;;;;;5059766;28;20044;-69
2021/12/15 06:42:24;;;;;;;40.15;15.55;;;9.80;99.90;;;;;;5060546;28;20090;-69
2021/12/15 06:44:50;;;;;;;40.57;15.77;;;9.80;99.90;;;;;;5041538;28;20162;-68
2021/12/15 06:57:17;;;;;;;29.40;14.10;;;9.80;99.90;;;;;;5051223;28;20467;-68
2021/12/15 06:58:23;;;;;;;33.65;14.60;;;9.80;99.90;;;;;;5062142;28;20127;-68
2021/12/15 07:00:53;;;;;;;31.02;15.45;;;9.80;99.90;;;;;;5042675;28;20044;-68
2021/12/15 07:03:20;;;;;;;35.97;15.25;;;9.90;99.90;;;;;;5039163;28;20840;-69
2021/12/15 07:05:47;;;;;;;35.55;14.70;;;9.80;99.90;;;;;;5059692;28;20169;-71
2021/12/15 07:08:14;;;;;;;34.47;14.30;;;9.80;99.90;;;;;;5060632;28;20051;-69
2021/12/15 07:10:44;;;;;;;36.25;14.63;;;9.80;99.90;;;;;;5045836;28;20051;-69
2021/12/15 07:13:11;;;;;;;33.65;14.27;;;9.80;99.90;;;;;;5039304;28;20047;-69
2021/12/15 07:15:38;;;;;;;33.53;13.75;;;9.80;99.90;;;;;;5047228;28;20045;-68
2021/12/15 07:18:08;;;;;;;35.35;13.80;;;9.80;99.90;;;;;;5039561;28;20132;-68
2021/12/15 07:20:48;;;;;;;36.08;14.27;;;9.80;99.90;;;;;;5042969;28;20473;-68
2021/12/15 07:23:17;;;;;;;32.58;13.02;;;9.80;99.90;;;;;;5045828;28;20036;-69
2021/12/15 07:25:46;;;;;;;27.17;12.13;;;9.80;99.90;;;;;;5057861;28;20084;-70
2021/12/15 07:28:12;;;;;;;33.97;12.75;;;9.80;99.90;;;;;;5059730;28;20472;-68
2021/12/15 07:30:38;;;;;;;;;;;9.80;99.90;;;;;;5063887;28;20379;-68
2021/12/15 07:33:06;;;;;;;25.75;11.55;;;9.80;99.90;;;;;;5041750;28;20003;-68
2021/12/15 07:35:32;;;;;;;31.52;11.07;;;9.80;99.90;;;;;;5046824;28;20211;-74
2021/12/15 07:37:58;;;;;;;25.30;10.30;;;9.80;99.90;;;;;;5037989;28;20604;-68
2021/12/15 07:40:25;;;;;;;28.27;11.00;;;9.80;99.90;;;;;;5045011;28;20283;-69
2021/12/15 07:42:56;;;;;;;23.42;10.27;;;9.80;99.90;;;;;;5034530;28;20076;-69
2021/12/15 07:45:25;;;;;;;24.35;9.98;;;9.80;99.90;;;;;;5043640;28;20048;-69
2021/12/15 07:47:55;;;;;;;25.67;11.60;;;9.80;99.90;;;;;;5063023;28;20047;-69
2021/12/15 07:50:22;;;;;;;26.10;10.25;;;9.80;99.90;;;;;;5045880;28;20090;-69
2021/12/15 07:52:49;;;;;;;24.20;10.57;;;9.70;99.90;;;;;;5065766;28;20072;-69
2021/12/15 07:55:16;;;;;;;28.63;11.90;;;9.70;99.90;;;;;;5063976;28;20060;-69
2021/12/15 07:57:42;;;;;;;34.65;14.10;;;9.70;99.90;;;;;;5044847;28;20037;-69
2021/12/15 08:00:10;;;;;;;34.63;12.52;;;9.70;99.90;;;;;;5065237;28;20489;-69
2021/12/15 08:02:36;;;;;;;30.30;11.63;;;9.70;99.90;;;;;;5044246;28;20044;-69
2021/12/15 08:05:02;;;;;;;33.65;13.65;;;9.70;99.90;;;;;;5063383;28;20032;-69
2021/12/15 08:07:28;;;;;;;32.35;12.57;;;9.70;99.90;;;;;;5064414;28;20040;-69
2021/12/15 08:09:53;;;;;;;32.07;12.27;;;9.70;99.90;;;;;;5048178;28;20043;-69
2021/12/15 08:12:19;;;;;;;34.37;11.97;;;9.70;99.90;;;;;;5046601;28;20041;-68
2021/12/15 08:14:45;;;;;;;33.97;12.50;;;9.60;99.90;;;;;;5062937;28;20033;-69
2021/12/15 08:17:10;;;;;;;32.70;13.50;;;9.70;99.90;;;;;;5044674;28;20037;-69
2021/12/15 08:19:36;;;;;;;41.38;12.82;;;9.60;99.90;;;;;;5047553;28;20044;-69
2021/12/15 08:22:02;;;;;;;30.07;11.87;;;9.70;99.90;;;;;;5064771;28;20107;-69
2021/12/15 08:24:28;;;;;;;27.83;11.82;;;9.70;99.90;;;;;;5046606;28;20051;-68
2021/12/15 08:26:53;;;;;;;26.90;11.57;;;9.60;99.90;;;;;;5051715;28;20105;-69
2021/12/15 08:29:19;;;;;;;42.00;12.70;;;9.60;99.90;;;;;;5045286;28;20040;-69
2021/12/15 08:31:45;;;;;;;27.67;12.33;;;9.60;99.90;;;;;;5063420;28;20650;-69
2021/12/15 08:34:10;;;;;;;33.67;11.93;;;9.60;99.90;;;;;;5058859;28;20041;-69
2021/12/15 08:36:39;;;;;;;25.42;11.48;;;9.70;99.90;;;;;;5042539;28;20053;-68
2021/12/15 08:39:06;;;;;;;30.65;13.15;;;9.70;99.90;;;;;;5042893;28;20207;-70
2021/12/15 08:41:32;;;;;;;34.95;12.70;;;9.70;99.90;;;;;;5045880;28;20370;-69
2021/12/15 08:43:58;;;;;;;23.97;12.13;;;9.70;99.90;;;;;;5050356;28;20043;-69
2021/12/15 08:46:33;;;;;;;27.33;11.48;;;9.70;99.90;;;;;;5049804;28;20469;-69
2021/12/15 08:49:00;;;;;;;33.53;11.18;;;9.70;99.90;;;;;;5055133;28;20089;-68
2021/12/15 08:54:00;;;;;;;29.05;12.25;;;9.70;99.90;;;;;;5024003;28;20057;-85
2021/12/15 08:56:26;;;;;;;28.08;12.25;;;9.70;99.90;;;;;;5019972;28;20462;-85
2021/12/15 08:58:53;;;;;;;26.15;12.40;;;9.70;99.90;;;;;;5014833;28;20037;-86
2021/12/15 09:01:19;;;;;;;34.60;12.63;;;9.70;99.90;;;;;;5006420;28;20043;-85
2021/12/15 09:03:45;;;;;;;33.10;11.77;;;9.70;99.90;;;;;;5034691;28;20110;-86
2021/12/15 09:06:13;;;;;;;36.97;12.60;;;9.70;99.90;;;;;;5019533;28;20410;-86
2021/12/15 09:08:40;;;;;;;28.10;11.15;;;9.80;99.90;;;;;;5019787;28;20079;-85
2021/12/15 09:11:15;;;;;;;31.27;11.00;;;9.80;99.90;;;;;;5036997;28;20504;-86
2021/12/15 09:13:42;;;;;;;23.15;10.68;;;9.90;99.90;;;;;;5035304;28;20366;-88
2021/12/15 09:16:11;;;;;;;25.10;9.80;;;9.90;99.90;;;;;;5031325;28;20037;-88
2021/12/15 09:18:53;;;;;;;23.05;9.98;;;9.90;99.90;;;;;;5035828;28;20078;-88
2021/12/15 09:21:21;;;;;;;28.05;10.30;;;10.10;99.90;;;;;;5042467;28;20037;-87
2021/12/15 09:23:53;;;;;;;25.52;8.82;;;10.00;99.90;;;;;;5038421;28;20041;-89
2021/12/15 09:26:20;;;;;;;25.98;8.55;;;10.10;99.90;;;;;;5023365;28;20040;-89
2021/12/15 09:28:47;;;;;;;16.95;8.77;;;10.10;99.90;;;;;;5038730;28;20044;-89
2021/12/15 09:31:25;;;;;;;22.30;8.82;;;10.10;99.90;;;;;;5036951;28;20116;-89
2021/12/15 09:33:56;;;;;;;20.75;8.93;;;10.20;99.90;;;;;;5021153;28;20127;-90
2021/12/15 09:36:25;;;;;;;29.67;10.27;;;10.20;99.90;;;;;;5040660;28;20049;-88
2021/12/15 09:39:15;;;;;;;24.75;10.23;;;10.20;99.90;;;;;;5044562;28;20557;-89
2021/12/15 09:41:42;;;;;;;19.80;9.48;;;10.20;99.90;;;;;;5015970;28;20053;-89
2021/12/15 09:44:16;;;;;;;25.25;10.02;;;10.20;99.90;;;;;;5035180;28;20088;-88
2021/12/15 10:03:27;;;;;;;17.65;7.50;;;10.20;99.90;;;;;;5027062;28;20052;-90
2021/12/15 10:06:03;;;;;;;19.23;8.32;;;10.10;99.90;;;;;;5031918;28;20041;-86
2021/12/15 10:11:48;;;;;;;20.35;8.35;;;10.10;99.90;;;;;;4997772;28;20603;-85
2021/12/15 10:19:53;;;;;;;21.38;8.23;;;10.20;99.90;;;;;;5051191;28;20048;-86
2021/12/15 10:22:30;;;;;;;18.27;8.43;;;10.20;99.90;;;;;;5030038;28;20033;-86
2021/12/15 10:25:04;;;;;;;14.45;7.28;;;10.30;99.90;;;;;;5023941;28;20495;-86
2021/12/15 10:27:47;;;;;;;17.02;7.45;;;10.30;99.90;;;;;;5040155;28;20163;-84
2021/12/15 10:30:43;;;;;;;22.85;8.68;;;10.30;99.90;;;;;;5033205;28;20083;-85
2021/12/15 10:33:15;;;;;;;23.15;7.32;;;10.30;99.90;;;;;;5018621;28;20130;-86
2021/12/15 10:35:47;;;;;;;17.50;8.27;;;10.30;99.90;;;;;;5014937;28;20049;-86
2021/12/15 10:38:29;;;;;;;18.38;7.47;;;10.30;99.90;;;;;;5047526;28;20030;-87
2021/12/15 10:41:09;;;;;;;18.08;6.95;;;10.30;99.90;;;;;;5031088;28;20044;-86
2021/12/15 10:43:40;;;;;;;18.13;6.72;;;10.30;99.90;;;;;;5033488;28;20037;-85
2021/12/15 10:46:17;;;;;;;16.08;6.72;;;10.40;99.90;;;;;;5014070;28;20399;-86
2021/12/15 10:48:56;;;;;;;16.33;6.20;;;10.30;99.90;;;;;;5035477;28;20041;-87
2021/12/15 10:51:59;;;;;;;14.35;5.60;;;10.40;99.90;;;;;;5012965;28;20368;-85
2021/12/15 10:54:40;;;;;;;13.32;6.03;;;10.40;99.90;;;;;;5034925;28;20044;-87
2021/12/15 10:57:18;;;;;;;13.52;6.45;;;10.40;99.90;;;;;;5031568;28;20040;-85
2021/12/15 10:59:51;;;;;;;14.38;5.85;;;10.50;99.90;;;;;;5032768;28;20037;-86
2021/12/15 11:02:28;;;;;;;12.98;5.65;;;10.50;99.90;;;;;;5031536;28;20550;-86
2021/12/15 11:04:56;;;;;;;;;;;10.50;99.90;;;;;;5048048;28;20103;-85
2021/12/15 11:07:21;;;;;;;;;;;10.50;99.90;;;;;;5032374;28;19966;-86
2021/12/15 11:09:58;;;;;;;12.88;5.13;;;10.40;99.90;;;;;;5029292;28;20357;-86
2021/12/15 11:12:36;;;;;;;9.57;4.88;;;10.50;99.90;;;;;;5048915;28;20091;-85
2021/12/15 11:15:19;;;;;;;14.27;5.13;;;10.50;99.90;;;;;;5032715;28;20044;-87
2021/12/15 11:17:54;;;;;;;13.32;5.68;;;10.50;99.90;;;;;;5028488;28;20043;-87
2021/12/15 11:20:24;;;;;;;10.27;4.78;;;10.60;99.90;;;;;;5034683;28;20083;-86
2021/12/15 11:23:00;;;;;;;22.13;6.07;;;10.50;99.90;;;;;;5029281;28;20044;-87
2021/12/15 11:25:44;;;;;;;10.45;4.32;;;10.50;99.90;;;;;;5034853;28;20107;-86
2021/12/15 11:28:24;;;;;;;13.70;5.22;;;10.60;99.90;;;;;;5036316;28;20458;-86
2021/12/15 11:30:58;;;;;;;12.23;5.18;;;10.60;99.90;;;;;;5040191;28;20045;-86
2021/12/15 11:33:37;;;;;;;16.67;4.80;;;10.60;99.90;;;;;;5031614;28;20049;-85
2021/12/15 11:36:11;;;;;;;14.32;4.93;;;10.60;99.90;;;;;;5028279;28;20037;-86
2021/12/15 11:38:47;;;;;;;14.23;4.50;;;10.60;99.90;;;;;;5036132;28;20426;-84
2021/12/15 11:41:26;;;;;;;14.20;5.03;;;10.60;99.90;;;;;;5037907;28;20028;-86
2021/12/15 11:44:13;;;;;;;14.43;5.15;;;10.60;99.90;;;;;;5020980;28;20043;-86
2021/12/15 11:47:35;;;;;;;10.20;4.38;;;10.60;99.90;;;;;;5020140;28;20495;-86
2021/12/15 11:50:17;;;;;;;15.85;5.82;;;10.70;99.90;;;;;;5017048;28;20534;-86
2021/12/15 11:52:45;;;;;;;12.48;4.85;;;10.70;99.90;;;;;;5036279;28;20072;-87
2021/12/15 11:55:27;;;;;;;18.27;4.97;;;10.70;99.90;;;;;;5040287;28;20454;-87
2021/12/15 11:57:53;;;;;;;11.63;4.97;;;10.70;99.90;;;;;;5035177;28;20049;-86
2021/12/15 12:00:21;;;;;;;10.40;4.15;;;10.70;99.90;;;;;;5020887;28;20083;-86
2021/12/15 12:02:51;;;;;;;9.57;4.53;;;10.70;99.90;;;;;;5035324;28;20021;-86
2021/12/15 12:05:33;;;;;;;19.88;4.47;;;10.80;99.90;;;;;;5034717;28;20215;-86
2021/12/15 12:08:04;;;;;;;11.02;3.33;;;10.70;99.90;;;;;;5033103;28;20060;-84
2021/12/15 12:10:47;;;;;;;10.55;4.22;;;10.80;99.90;;;;;;5022568;28;20047;-86
2021/12/15 12:13:24;;;;;;;11.20;4.57;;;10.70;99.90;;;;;;5034564;28;20032;-86
2021/12/15 12:15:56;;;;;;;12.45;4.15;;;10.70;99.90;;;;;;5039789;28;20041;-86
2021/12/15 12:18:28;;;;;;;7.85;3.40;;;10.70;99.90;;;;;;5028281;28;20041;-86
2021/12/15 12:20:59;;;;;;;6.57;2.83;;;10.70;99.90;;;;;;5038996;28;20048;-86
2021/12/15 12:23:27;;;;;;;11.07;3.53;;;10.70;99.90;;;;;;5029655;28;20033;-86
2021/12/15 12:26:01;;;;;;;9.15;2.95;;;10.70;99.90;;;;;;5041224;28;20051;-86
2021/12/15 12:28:31;;;;;;;9.77;3.33;;;10.80;99.90;;;;;;5032275;28;20284;-87
2021/12/15 12:31:06;;;;;;;9.60;2.70;;;10.80;99.90;;;;;;5040024;28;20047;-86
2021/12/15 12:33:32;;;;;;;8.95;2.53;;;10.80;99.90;;;;;;5057580;28;20032;-86
2021/12/15 12:36:03;;;;;;;;;;;10.80;99.90;;;;;;5033404;28;20045;-86
2021/12/15 12:38:31;;;;;;;5.80;2.03;;;10.70;99.90;;;;;;5051097;28;19931;-86
2021/12/15 12:41:00;;;;;;;6.80;3.05;;;10.70;99.90;;;;;;5011332;28;20052;-86
2021/12/15 12:43:32;;;;;;;11.80;2.75;;;10.70;99.90;;;;;;5032654;28;20065;-84
2021/12/15 12:46:14;;;;;;;7.60;2.30;;;10.60;99.90;;;;;;5050063;28;20033;-86
2021/12/15 12:59:56;;;;;;;5.88;1.85;;;10.60;99.90;;;;;;5035055;28;20052;-86
2021/12/15 13:02:37;;;;;;;5.57;2.30;;;10.50;99.90;;;;;;5037277;28;20051;-86
2021/12/15 13:05:05;;;;;;;3.70;1.30;;;10.50;99.90;;;;;;5031761;28;20587;-87
2021/12/15 13:07:48;;;;;;;5.40;1.45;;;10.50;99.90;;;;;;5027218;28;20055;-86
2021/12/15 13:10:16;;;;;;;5.38;2.00;;;10.50;99.90;;;;;;5018376;28;20044;-86
2021/12/15 13:12:47;;;;;;;7.72;1.73;;;10.40;99.90;;;;;;5052160;28;20517;-86
2021/12/15 13:15:22;;;;;;;9.43;1.83;;;10.40;99.90;;;;;;5035068;28;20198;-84
2021/12/15 13:18:00;;;;;;;4.95;1.35;;;10.40;99.90;;;;;;5020685;28;20053;-88
2021/12/15 13:20:31;;;;;;;6.45;1.92;;;10.40;99.90;;;;;;5050391;28;20035;-86
2021/12/15 13:23:08;;;;;;;5.80;1.70;;;10.40;99.90;;;;;;5036790;28;20063;-86
2021/12/15 13:28:48;;;;;;;3.85;1.50;;;10.40;99.90;;;;;;5048806;28;20056;-86
2021/12/15 13:31:22;;;;;;;3.72;1.17;;;10.30;99.90;;;;;;5033837;28;20041;-86
2021/12/15 13:33:51;;;;;;;3.00;1.45;;;10.30;99.90;;;;;;5033012;28;21033;-86
2021/12/15 13:36:32;;;;;;;4.30;1.38;;;10.30;99.90;;;;;;5034737;28;20120;-86
2021/12/15 13:39:11;;;;;;;6.63;1.58;;;10.30;99.90;;;;;;5027642;28;20036;-86
2021/12/15 13:42:00;;;;;;;5.53;1.60;;;10.30;99.90;;;;;;5034941;28;20024;-84
2021/12/15 13:44:47;;;;;;;4.55;1.52;;;10.30;99.90;;;;;;5017965;28;20036;-88
2021/12/15 13:47:25;;;;;;;6.53;1.92;;;10.30;99.90;;;;;;5033175;28;20482;-86
2021/12/15 13:49:59;;;;;;;5.10;1.60;;;10.30;99.90;;;;;;5030898;28;20063;-85
2021/12/15 13:52:43;;;;;;;5.43;1.85;;;10.20;99.90;;;;;;5026530;28;20510;-86
2021/12/15 13:55:14;;;;;;;3.17;1.70;;;10.30;99.90;;;;;;5030984;28;20517;-86
2021/12/15 13:57:57;;;;;;;6.93;1.58;;;10.30;99.90;;;;;;5035278;28;20048;-87
2021/12/15 14:00:44;;;;;;;5.35;1.75;;;10.20;99.90;;;;;;5016862;28;20041;-87
2021/12/15 14:03:32;;;;;;;6.38;1.75;;;10.20;99.90;;;;;;5029128;28;20037;-87
2021/12/15 14:06:12;;;;;;;3.10;1.17;;;10.20;99.90;;;;;;5018856;28;20362;-86
2021/12/15 14:08:48;;;;;;;5.70;1.27;;;10.20;99.90;;;;;;5029963;28;20052;-86
2021/12/15 14:11:19;;;;;;;6.75;1.83;;;10.20;99.90;;;;;;5036169;28;20045;-88
2021/12/15 14:14:05;;;;;;;5.00;1.40;;;10.10;99.90;;;;;;5033650;28;20117;-86
2021/12/15 14:16:33;;;;;;;2.83;1.13;;;10.10;99.90;;;;;;5014754;28;20086;-87